Schooner Bowdoin — WAM8653 — position and weather

sailwx.info

Track history (hours):
 
Tides and Currents Weather Stations Pressure Air Temp Water Temp Dewpoint Dewpoint Depression Visibility Wind Speed Wind Dir Waves Ship Positions

Schooner Bowdoin

Training vessel for Maine Maritime Academy.

Ship's website: http://bowdoin.mma.edu/

Owner: MAINE MARITIME ACADEMY, CASTINE, ME. More information available from US FCC via Universal Licensing System and Coast Guard Vessel Documentation Center.

Last reported at 2019-Oct-28 15:08 UTC. Time now 2019-Dec-06 06:30 UTC.
Position N 44°23' W 068°48'.
Warning: this ship's position is 38 days out of date.

Length 28 m; draft 3.2 m.

Type: Sailing vessel. MMSI: 303498000.

Date/timePositionNaut miles runAvg speedWind from/ knotsBaromVisibWave heightAir tempDewpointWater temp
2019-Oct-28 15:08N 44°23' W 068°48'0 0.1
2019-Oct-28 14:48N 44°23' W 068°48'0 0.0
2019-Oct-28 12:23N 44°23' W 068°48'1 0.0
2019-Oct-27 12:44N 44°22' W 068°48'0 0.0
2019-Oct-27 02:16N 44°22' W 068°48'0 0.0
2019-Oct-26 23:08N 44°22' W 068°48'0 0.1
2019-Oct-26 19:25N 44°22' W 068°48'1 0.3
2019-Oct-26 15:57N 44°22' W 068°50'2 0.1
2019-Oct-25 16:37N 44°23' W 068°48'0 0.2
2019-Oct-25 16:30N 44°23' W 068°48'0 0.0
2019-Oct-25 16:00N 44°23' W 068°48'0 0.1
2019-Oct-25 15:25N 44°23' W 068°48'0 0.1
2019-Oct-25 14:18N 44°23' W 068°48'0 0.0
2019-Oct-25 13:47N 44°23' W 068°48'0 0.4
2019-Oct-25 13:24N 44°23' W 068°48'0 0.0
2019-Oct-25 12:47N 44°23' W 068°48'0 0.3
2019-Oct-25 12:18N 44°23' W 068°48'0 0.0
2019-Oct-25 12:00N 44°23' W 068°48'0 0.0
2019-Oct-23 19:56N 44°23' W 068°48'0 0.1
2019-Oct-23 19:00N 44°23' W 068°48'0 0.1
2019-Oct-23 17:53N 44°23' W 068°48'0 0.0
2019-Oct-22 20:17N 44°23' W 068°48'0 0.0
2019-Oct-22 19:58N 44°23' W 068°48'0 0.0
2019-Oct-21 22:04N 44°23' W 068°48'0 0.1
2019-Oct-21 22:00N 44°23' W 068°48'2 1.7
2019-Oct-21 21:01N 44°23' W 068°50'0 5.5
2019-Oct-21 21:00N 44°23' W 068°50'2 0.8
2019-Oct-21 18:56N 44°23' W 068°48'0 0.0
2019-Oct-21 18:19N 44°23' W 068°48'0 0.1
2019-Oct-21 17:21N 44°23' W 068°48'0 0.1
2019-Oct-21 16:50N 44°23' W 068°48'2 0.1
2019-Oct-20 17:50N 44°22' W 068°49'2 6.9
2019-Oct-20 17:28N 44°20' W 068°51'3 6.9
2019-Oct-20 17:00N 44°17' W 068°52'3 6.8
2019-Oct-20 16:29N 44°14' W 068°54'3 6.6
2019-Oct-20 16:01N 44°11' W 068°56'3 6.2
2019-Oct-20 15:30N 44°08' W 068°58'3 6.0
2019-Oct-20 15:00N 44°05' W 068°56'3 4.8
2019-Oct-20 14:28N 44°03' W 068°54'1 0.0
2019-Oct-19 16:33N 44°02' W 068°53'0 0.7
2019-Oct-19 16:18N 44°03' W 068°53'1 4.9
2019-Oct-19 16:00N 44°02' W 068°55'2 4.3
2019-Oct-19 15:30N 44°03' W 068°58'3 6.2
2019-Oct-19 15:00N 44°06' W 068°59'4 8.2
2019-Oct-19 14:29N 44°10' W 068°56'4 7.6
2019-Oct-19 14:00N 44°14' W 068°54'5 9.1
2019-Oct-19 13:27N 44°18' W 068°51'6 4.5
2019-Oct-19 12:12N 44°23' W 068°48'0 0.0
2019-Oct-19 12:01N 44°23' W 068°48'  
Track history (hours):
 
Tides and Currents Weather Stations Pressure Air Temp Water Temp Dewpoint Dewpoint Depression Visibility Wind Speed Wind Dir Waves Ship Positions

Schooner Bowdoin

Training vessel for Maine Maritime Academy.

Ship's website: http://bowdoin.mma.edu/

Owner: MAINE MARITIME ACADEMY, CASTINE, ME. More information available from US FCC via Universal Licensing System and Coast Guard Vessel Documentation Center.

Last reported at 2019-Oct-28 15:08 UTC. Time now 2019-Dec-06 06:30 UTC.
Position N 44°23' W 068°48'.
Warning: this ship's position is 38 days out of date.

Length 28 m; draft 3.2 m.

Type: Sailing vessel. MMSI: 303498000.

Date/timePositionNaut miles runAvg speedWind from/ knotsBaromVisibWave heightAir tempDewpointWater temp
2019-Oct-28 15:08N 44°23' W 068°48'0 0.1
2019-Oct-28 14:48N 44°23' W 068°48'0 0.0
2019-Oct-28 12:23N 44°23' W 068°48'1 0.0
2019-Oct-27 12:44N 44°22' W 068°48'0 0.0
2019-Oct-27 02:16N 44°22' W 068°48'0 0.0
2019-Oct-26 23:08N 44°22' W 068°48'0 0.1
2019-Oct-26 19:25N 44°22' W 068°48'1 0.3
2019-Oct-26 15:57N 44°22' W 068°50'2 0.1
2019-Oct-25 16:37N 44°23' W 068°48'0 0.2
2019-Oct-25 16:30N 44°23' W 068°48'0 0.0
2019-Oct-25 16:00N 44°23' W 068°48'0 0.1
2019-Oct-25 15:25N 44°23' W 068°48'0 0.1
2019-Oct-25 14:18N 44°23' W 068°48'0 0.0
2019-Oct-25 13:47N 44°23' W 068°48'0 0.4
2019-Oct-25 13:24N 44°23' W 068°48'0 0.0
2019-Oct-25 12:47N 44°23' W 068°48'0 0.3
2019-Oct-25 12:18N 44°23' W 068°48'0 0.0
2019-Oct-25 12:00N 44°23' W 068°48'0 0.0
2019-Oct-23 19:56N 44°23' W 068°48'0 0.1
2019-Oct-23 19:00N 44°23' W 068°48'0 0.1
2019-Oct-23 17:53N 44°23' W 068°48'0 0.0
2019-Oct-22 20:17N 44°23' W 068°48'0 0.0
2019-Oct-22 19:58N 44°23' W 068°48'0 0.0
2019-Oct-21 22:04N 44°23' W 068°48'0 0.1
2019-Oct-21 22:00N 44°23' W 068°48'2 1.7
2019-Oct-21 21:01N 44°23' W 068°50'0 5.5
2019-Oct-21 21:00N 44°23' W 068°50'2 0.8
2019-Oct-21 18:56N 44°23' W 068°48'0 0.0
2019-Oct-21 18:19N 44°23' W 068°48'0 0.1
2019-Oct-21 17:21N 44°23' W 068°48'0 0.1
2019-Oct-21 16:50N 44°23' W 068°48'2 0.1
2019-Oct-20 17:50N 44°22' W 068°49'2 6.9
2019-Oct-20 17:28N 44°20' W 068°51'3 6.9
2019-Oct-20 17:00N 44°17' W 068°52'3 6.8
2019-Oct-20 16:29N 44°14' W 068°54'3 6.6
2019-Oct-20 16:01N 44°11' W 068°56'3 6.2
2019-Oct-20 15:30N 44°08' W 068°58'3 6.0
2019-Oct-20 15:00N 44°05' W 068°56'3 4.8
2019-Oct-20 14:28N 44°03' W 068°54'1 0.0
2019-Oct-19 16:33N 44°02' W 068°53'0 0.7
2019-Oct-19 16:18N 44°03' W 068°53'1 4.9
2019-Oct-19 16:00N 44°02' W 068°55'2 4.3
2019-Oct-19 15:30N 44°03' W 068°58'3 6.2
2019-Oct-19 15:00N 44°06' W 068°59'4 8.2
2019-Oct-19 14:29N 44°10' W 068°56'4 7.6
2019-Oct-19 14:00N 44°14' W 068°54'5 9.1
2019-Oct-19 13:27N 44°18' W 068°51'6 4.5
2019-Oct-19 12:12N 44°23' W 068°48'0 0.0
2019-Oct-19 12:01N 44°23' W 068°48'  

Dump ship's entire track history